Terminal Aerodrome Forecast
Issued by NWS Austin/San Antonio, TX

Home | Current Version | Previous Version | Text Only | Print | Product List | Glossary On
Versions: 1 2 3 4 5 6 7 8 9 10 11 12 13 14 15 16 17 18 19 20 21
000
FTUS44 KEWX 212300 RRA
TAFSAT
TAF
KSAT 212341Z 2200/2306 15008KT P6SM VCSH SCT015 OVC025
      TEMPO 2200/2203 5SM -SHRA BR BKN015
     FM220300 14012KT 6SM BR OVC007
      TEMPO 2212/2216 3SM SHRA BR BKN004
     FM221600 15013KT P6SM VCTS BKN025CB
      TEMPO 2218/2222 VRB15G30KT 2SM +TSRA BKN012CB
     FM222200 16011KT P6SM VCTS SCT025CB BKN040
      TEMPO 2222/2302 VRB15G30KT 2SM +TSRA BKN008CB
     FM230300 18005KT P6SM BKN025=

USA.gov is the U.S. government's official web portal to all federal, state and local government web resources and services.